sensor_id;sensor_type;location;lat;lon;timestamp;pressure;altitude;pressure_sealevel;temperature;humidity
14383;BME280;7275;50.328;8.720;2023-04-06T00:01:38;100040.53;;;8.61;25.86
14383;BME280;7275;50.328;8.720;2023-04-06T00:04:06;100045.84;;;8.58;25.98
14383;BME280;7275;50.328;8.720;2023-04-06T00:06:34;100040.66;;;8.55;25.92
14383;BME280;7275;50.328;8.720;2023-04-06T00:09:02;100046.88;;;8.53;25.92
14383;BME280;7275;50.328;8.720;2023-04-06T00:11:31;100033.72;;;8.51;26.19
14383;BME280;7275;50.328;8.720;2023-04-06T00:13:58;100038.97;;;8.51;25.90
14383;BME280;7275;50.328;8.720;2023-04-06T00:16:26;100033.72;;;8.51;26.05
14383;BME280;7275;50.328;8.720;2023-04-06T00:18:56;100044.25;;;8.51;26.14
14383;BME280;7275;50.328;8.720;2023-04-06T00:21:23;100037.31;;;8.49;26.23
14383;BME280;7275;50.328;8.720;2023-04-06T00:23:52;100033.81;;;8.48;26.08
14383;BME280;7275;50.328;8.720;2023-04-06T00:26:19;100029.41;;;8.47;26.16
14383;BME280;7275;50.328;8.720;2023-04-06T00:28:51;100033.03;;;8.45;26.32
14383;BME280;7275;50.328;8.720;2023-04-06T00:31:19;100031.38;;;8.39;26.25
14383;BME280;7275;50.328;8.720;2023-04-06T00:33:47;100023.56;;;8.36;26.34
14383;BME280;7275;50.328;8.720;2023-04-06T00:36:15;100028.84;;;8.35;26.29
14383;BME280;7275;50.328;8.720;2023-04-06T00:38:43;100025.38;;;8.34;26.36
14383;BME280;7275;50.328;8.720;2023-04-06T00:41:11;100020.97;;;8.33;26.41
14383;BME280;7275;50.328;8.720;2023-04-06T00:43:38;100020.09;;;8.34;26.46
14383;BME280;7275;50.328;8.720;2023-04-06T00:46:07;100021.84;;;8.34;26.72
14383;BME280;7275;50.328;8.720;2023-04-06T00:48:35;100019.28;;;8.32;26.64
14383;BME280;7275;50.328;8.720;2023-04-06T00:51:03;100015.81;;;8.29;26.53
14383;BME280;7275;50.328;8.720;2023-04-06T00:53:31;100018.50;;;8.27;26.67
14383;BME280;7275;50.328;8.720;2023-04-06T00:55:58;100017.56;;;8.28;26.51
14383;BME280;7275;50.328;8.720;2023-04-06T00:58:26;100005.34;;;8.27;26.80
14383;BME280;7275;50.328;8.720;2023-04-06T01:00:54;100004.50;;;8.25;26.58
14383;BME280;7275;50.328;8.720;2023-04-06T01:03:23;99999.34;;;8.19;26.61
14383;BME280;7275;50.328;8.720;2023-04-06T01:05:51;99996.75;;;8.18;27.00
14383;BME280;7275;50.328;8.720;2023-04-06T01:08:24;99995.06;;;8.15;26.99
14383;BME280;7275;50.328;8.720;2023-04-06T01:10:52;100002.03;;;8.16;26.86
14383;BME280;7275;50.328;8.720;2023-04-06T01:13:19;99995.06;;;8.14;26.78
14383;BME280;7275;50.328;8.720;2023-04-06T01:15:47;99994.28;;;8.10;26.91
14383;BME280;7275;50.328;8.720;2023-04-06T01:18:15;99994.41;;;8.04;26.80
14383;BME280;7275;50.328;8.720;2023-04-06T01:20:44;99998.94;;;7.97;27.13
14383;BME280;7275;50.328;8.720;2023-04-06T01:23:13;99993.88;;;7.90;27.13
14383;BME280;7275;50.328;8.720;2023-04-06T01:25:40;99993.03;;;7.86;27.13
14383;BME280;7275;50.328;8.720;2023-04-06T01:28:08;99991.38;;;7.84;27.24
14383;BME280;7275;50.328;8.720;2023-04-06T01:30:36;99991.38;;;7.82;27.18
14383;BME280;7275;50.328;8.720;2023-04-06T01:33:04;99984.44;;;7.80;27.47
14383;BME280;7275;50.328;8.720;2023-04-06T01:35:31;99988.75;;;7.82;27.43
14383;BME280;7275;50.328;8.720;2023-04-06T01:37:59;99986.16;;;7.81;27.30
14383;BME280;7275;50.328;8.720;2023-04-06T01:40:28;99984.50;;;7.77;27.29
14383;BME280;7275;50.328;8.720;2023-04-06T01:42:56;99979.28;;;7.75;27.55
14383;BME280;7275;50.328;8.720;2023-04-06T01:45:23;99981.94;;;7.74;27.34
14383;BME280;7275;50.328;8.720;2023-04-06T01:47:51;99981.94;;;7.72;27.36
14383;BME280;7275;50.328;8.720;2023-04-06T01:50:19;99981.13;;;7.70;27.34
14383;BME280;7275;50.328;8.720;2023-04-06T01:52:47;99974.16;;;7.68;27.58
14383;BME280;7275;50.328;8.720;2023-04-06T01:55:14;99981.22;;;7.66;27.37
14383;BME280;7275;50.328;8.720;2023-04-06T01:57:43;99978.63;;;7.64;27.46
14383;BME280;7275;50.328;8.720;2023-04-06T02:00:12;99981.34;;;7.61;27.49
14383;BME280;7275;50.328;8.720;2023-04-06T02:02:40;99978.72;;;7.60;27.56
14383;BME280;7275;50.328;8.720;2023-04-06T02:05:08;99981.44;;;7.57;27.52
14383;BME280;7275;50.328;8.720;2023-04-06T02:07:36;99977.13;;;7.53;27.63
14383;BME280;7275;50.328;8.720;2023-04-06T02:10:10;99973.66;;;7.51;27.66
14383;BME280;7275;50.328;8.720;2023-04-06T02:12:38;99969.28;;;7.50;27.90
14383;BME280;7275;50.328;8.720;2023-04-06T02:15:08;99974.50;;;7.51;27.84
14383;BME280;7275;50.328;8.720;2023-04-06T02:17:35;99967.56;;;7.49;27.61
14383;BME280;7275;50.328;8.720;2023-04-06T02:20:04;99971.13;;;7.46;27.75
14383;BME280;7275;50.328;8.720;2023-04-06T02:22:31;99967.66;;;7.44;27.60
14383;BME280;7275;50.328;8.720;2023-04-06T02:24:59;99978.19;;;7.43;27.83
14383;BME280;7275;50.328;8.720;2023-04-06T02:27:27;99972.09;;;7.41;27.75
14383;BME280;7275;50.328;8.720;2023-04-06T02:29:55;99961.66;;;7.38;27.66
14383;BME280;7275;50.328;8.720;2023-04-06T02:32:24;99967.78;;;7.37;27.78
14383;BME280;7275;50.328;8.720;2023-04-06T02:34:52;99959.91;;;7.37;28.06
14383;BME280;7275;50.328;8.720;2023-04-06T02:37:19;99959.94;;;7.35;27.88
14383;BME280;7275;50.328;8.720;2023-04-06T02:39:47;99955.59;;;7.33;27.76
14383;BME280;7275;50.328;8.720;2023-04-06T02:42:15;99961.81;;;7.30;27.87
14383;BME280;7275;50.328;8.720;2023-04-06T02:44:42;99957.47;;;7.28;28.04
14383;BME280;7275;50.328;8.720;2023-04-06T02:47:10;99962.75;;;7.26;28.18
14383;BME280;7275;50.328;8.720;2023-04-06T02:49:39;99961.91;;;7.24;27.86
14383;BME280;7275;50.328;8.720;2023-04-06T02:52:07;99961.06;;;7.22;27.89
14383;BME280;7275;50.328;8.720;2023-04-06T02:54:34;99956.72;;;7.21;27.91
14383;BME280;7275;50.328;8.720;2023-04-06T02:57:02;99958.53;;;7.19;28.28
14383;BME280;7275;50.328;8.720;2023-04-06T02:59:29;99963.84;;;7.16;28.18
14383;BME280;7275;50.328;8.720;2023-04-06T03:01:57;99961.25;;;7.14;28.25
14383;BME280;7275;50.328;8.720;2023-04-06T03:04:25;99964.78;;;7.12;28.25
14383;BME280;7275;50.328;8.720;2023-04-06T03:06:54;99966.59;;;7.10;28.56
14383;BME280;7275;50.328;8.720;2023-04-06T03:09:24;99969.16;;;7.11;28.23
14383;BME280;7275;50.328;8.720;2023-04-06T03:11:52;99963.06;;;7.11;28.42
14383;BME280;7275;50.328;8.720;2023-04-06T03:14:20;99966.59;;;7.10;28.39
14383;BME280;7275;50.328;8.720;2023-04-06T03:16:48;99968.34;;;7.09;28.70
14383;BME280;7275;50.328;8.720;2023-04-06T03:19:16;99969.25;;;7.08;28.28
14383;BME280;7275;50.328;8.720;2023-04-06T03:21:44;99968.38;;;7.08;28.46
14383;BME280;7275;50.328;8.720;2023-04-06T03:24:13;99960.53;;;7.06;28.78
14383;BME280;7275;50.328;8.720;2023-04-06T03:26:41;99971.09;;;7.03;28.30
14383;BME280;7275;50.328;8.720;2023-04-06T03:29:08;99964.13;;;7.01;28.65
14383;BME280;7275;50.328;8.720;2023-04-06T03:31:36;99968.53;;;7.00;28.60
14383;BME280;7275;50.328;8.720;2023-04-06T03:34:04;99965.03;;;7.00;28.51
14383;BME280;7275;50.328;8.720;2023-04-06T03:36:32;99968.53;;;6.99;28.41
14383;BME280;7275;50.328;8.720;2023-04-06T03:38:59;99967.72;;;6.95;28.51
14383;BME280;7275;50.328;8.720;2023-04-06T03:41:28;99962.56;;;6.92;28.60
14383;BME280;7275;50.328;8.720;2023-04-06T03:43:56;99966.97;;;6.89;28.64
14383;BME280;7275;50.328;8.720;2023-04-06T03:46:24;99958.25;;;6.88;28.46
14383;BME280;7275;50.328;8.720;2023-04-06T03:48:51;99966.09;;;6.90;28.32
14383;BME280;7275;50.328;8.720;2023-04-06T03:51:19;99966.09;;;6.90;29.03
14383;BME280;7275;50.328;8.720;2023-04-06T03:53:47;99966.09;;;6.90;28.91
14383;BME280;7275;50.328;8.720;2023-04-06T03:56:14;99966.97;;;6.90;28.60
14383;BME280;7275;50.328;8.720;2023-04-06T03:58:43;99966.09;;;6.90;28.72
14383;BME280;7275;50.328;8.720;2023-04-06T04:01:11;99967.88;;;6.88;28.93
14383;BME280;7275;50.328;8.720;2023-04-06T04:03:39;99971.44;;;6.85;29.19
14383;BME280;7275;50.328;8.720;2023-04-06T04:06:07;99971.44;;;6.85;29.10
14383;BME280;7275;50.328;8.720;2023-04-06T04:08:34;99971.47;;;6.82;29.14
14383;BME280;7275;50.328;8.720;2023-04-06T04:11:02;99973.25;;;6.80;28.75
14383;BME280;7275;50.328;8.720;2023-04-06T04:13:30;99971.56;;;6.78;28.80
14383;BME280;7275;50.328;8.720;2023-04-06T04:15:59;99972.44;;;6.77;29.13
14383;BME280;7275;50.328;8.720;2023-04-06T04:18:27;99983.88;;;6.76;28.81
14383;BME280;7275;50.328;8.720;2023-04-06T04:20:54;99974.28;;;6.73;28.79
14383;BME280;7275;50.328;8.720;2023-04-06T04:23:22;99985.66;;;6.72;28.91
14383;BME280;7275;50.328;8.720;2023-04-06T04:25:50;99986.56;;;6.71;29.03
14383;BME280;7275;50.328;8.720;2023-04-06T04:28:17;99981.31;;;6.70;29.37
14383;BME280;7275;50.328;8.720;2023-04-06T04:30:46;99985.75;;;6.68;29.44
14383;BME280;7275;50.328;8.720;2023-04-06T04:33:15;99981.34;;;6.68;29.51
14383;BME280;7275;50.328;8.720;2023-04-06T04:35:43;99986.66;;;6.67;28.99
14383;BME280;7275;50.328;8.720;2023-04-06T04:38:10;99981.44;;;6.64;29.32
14383;BME280;7275;50.328;8.720;2023-04-06T04:40:38;99990.25;;;6.61;29.29
14383;BME280;7275;50.328;8.720;2023-04-06T04:43:05;99988.53;;;6.59;29.50
14383;BME280;7275;50.328;8.720;2023-04-06T04:45:33;99985.91;;;6.59;29.41
14383;BME280;7275;50.328;8.720;2023-04-06T04:48:01;99988.53;;;6.57;29.41
14383;BME280;7275;50.328;8.720;2023-04-06T04:50:32;99983.22;;;6.62;29.55
14383;BME280;7275;50.328;8.720;2023-04-06T04:53:00;99993.72;;;6.63;29.41
14383;BME280;7275;50.328;8.720;2023-04-06T04:55:28;99991.06;;;6.65;29.57
14383;BME280;7275;50.328;8.720;2023-04-06T04:57:55;99994.56;;;6.65;29.52
14383;BME280;7275;50.328;8.720;2023-04-06T05:00:23;99992.78;;;6.67;29.82
14383;BME280;7275;50.328;8.720;2023-04-06T05:02:51;99991.91;;;6.67;29.91
14383;BME280;7275;50.328;8.720;2023-04-06T05:05:18;99998.00;;;6.69;29.84
14383;BME280;7275;50.328;8.720;2023-04-06T05:07:47;100000.59;;;6.70;29.70
14383;BME280;7275;50.328;8.720;2023-04-06T05:10:15;99998.84;;;6.71;29.72
14383;BME280;7275;50.328;8.720;2023-04-06T05:12:43;99993.53;;;6.72;29.66
14383;BME280;7275;50.328;8.720;2023-04-06T05:15:11;99997.00;;;6.74;29.98
14383;BME280;7275;50.328;8.720;2023-04-06T05:17:38;99994.38;;;6.76;29.65
14383;BME280;7275;50.328;8.720;2023-04-06T05:20:07;100001.31;;;6.78;30.12
14383;BME280;7275;50.328;8.720;2023-04-06T05:22:35;99996.91;;;6.80;29.69
14383;BME280;7275;50.328;8.720;2023-04-06T05:25:04;99985.47;;;6.83;29.91
14383;BME280;7275;50.328;8.720;2023-04-06T05:27:32;99993.28;;;6.87;30.00
14383;BME280;7275;50.328;8.720;2023-04-06T05:30:00;99992.34;;;6.91;29.91
14383;BME280;7275;50.328;8.720;2023-04-06T05:32:28;99993.97;;;6.97;30.10
14383;BME280;7275;50.328;8.720;2023-04-06T05:34:56;99998.28;;;7.02;30.33
14383;BME280;7275;50.328;8.720;2023-04-06T05:37:23;99996.41;;;7.09;29.92
14383;BME280;7275;50.328;8.720;2023-04-06T05:39:51;100002.38;;;7.17;30.18
14383;BME280;7275;50.328;8.720;2023-04-06T05:42:20;100002.22;;;7.24;30.13
14383;BME280;7275;50.328;8.720;2023-04-06T05:44:48;100001.19;;;7.33;30.27
14383;BME280;7275;50.328;8.720;2023-04-06T05:47:15;100008.91;;;7.42;30.62
14383;BME280;7275;50.328;8.720;2023-04-06T05:49:43;100003.47;;;7.50;30.19
14383;BME280;7275;50.328;8.720;2023-04-06T05:52:11;100004.19;;;7.59;30.19
14383;BME280;7275;50.328;8.720;2023-04-06T05:54:39;100004.00;;;7.67;30.50
14383;BME280;7275;50.328;8.720;2023-04-06T05:57:06;100006.50;;;7.73;30.21
14383;BME280;7275;50.328;8.720;2023-04-06T05:59:35;100008.97;;;7.80;30.79
14383;BME280;7275;50.328;8.720;2023-04-06T06:02:03;100000.06;;;7.87;30.69
14383;BME280;7275;50.328;8.720;2023-04-06T06:04:31;100014.81;;;7.94;30.83
14383;BME280;7275;50.328;8.720;2023-04-06T06:06:59;100004.13;;;8.02;31.06
14383;BME280;7275;50.328;8.720;2023-04-06T06:09:26;100002.19;;;8.10;30.95
14383;BME280;7275;50.328;8.720;2023-04-06T06:11:54;100007.19;;;8.21;31.07
14383;BME280;7275;50.328;8.720;2023-04-06T06:14:21;100001.78;;;8.28;31.26
14383;BME280;7275;50.328;8.720;2023-04-06T06:16:50;100003.47;;;8.32;31.04
14383;BME280;7275;50.328;8.720;2023-04-06T06:19:18;100009.56;;;8.34;31.12
14383;BME280;7275;50.328;8.720;2023-04-06T06:21:46;100010.44;;;8.33;31.48
14383;BME280;7275;50.328;8.720;2023-04-06T06:24:13;100010.44;;;8.33;31.38
14383;BME280;7275;50.328;8.720;2023-04-06T06:26:41;100014.75;;;8.37;31.45
14383;BME280;7275;50.328;8.720;2023-04-06T06:29:09;100008.53;;;8.40;31.11
14383;BME280;7275;50.328;8.720;2023-04-06T06:31:37;100011.94;;;8.45;31.72
14383;BME280;7275;50.328;8.720;2023-04-06T06:34:06;100011.81;;;8.49;31.87
14383;BME280;7275;50.328;8.720;2023-04-06T06:36:34;100013.47;;;8.53;31.94
14383;BME280;7275;50.328;8.720;2023-04-06T06:39:02;100016.88;;;8.58;31.91
14383;BME280;7275;50.328;8.720;2023-04-06T06:41:30;100006.28;;;8.61;31.91
14383;BME280;7275;50.328;8.720;2023-04-06T06:43:58;100021.94;;;8.66;32.25
14383;BME280;7275;50.328;8.720;2023-04-06T06:46:26;100017.47;;;8.69;32.21
14383;BME280;7275;50.328;8.720;2023-04-06T06:48:54;100020.03;;;8.72;32.24
14383;BME280;7275;50.328;8.720;2023-04-06T06:51:23;100005.91;;;8.75;32.24
14383;BME280;7275;50.328;8.720;2023-04-06T06:53:50;100006.69;;;8.80;32.36
14383;BME280;7275;50.328;8.720;2023-04-06T06:56:18;100009.16;;;8.86;32.26
14383;BME280;7275;50.328;8.720;2023-04-06T06:58:46;100003.72;;;8.92;32.35
14383;BME280;7275;50.328;8.720;2023-04-06T07:01:14;100006.19;;;8.98;32.27
14383;BME280;7275;50.328;8.720;2023-04-06T07:03:41;100007.78;;;9.05;32.36
14383;BME280;7275;50.328;8.720;2023-04-06T07:06:09;100001.47;;;9.11;32.55
14383;BME280;7275;50.328;8.720;2023-04-06T07:08:38;100004.00;;;9.15;32.64
14383;BME280;7275;50.328;8.720;2023-04-06T07:11:06;100005.69;;;9.18;32.85
14383;BME280;7275;50.328;8.720;2023-04-06T07:13:33;99994.16;;;9.20;32.45
14383;BME280;7275;50.328;8.720;2023-04-06T07:16:01;99998.50;;;9.23;32.66
14383;BME280;7275;50.328;8.720;2023-04-06T07:18:29;99994.03;;;9.25;32.92
14383;BME280;7275;50.328;8.720;2023-04-06T07:20:58;99993.09;;;9.27;33.11
14383;BME280;7275;50.328;8.720;2023-04-06T07:23:26;99992.09;;;9.31;33.01
14383;BME280;7275;50.328;8.720;2023-04-06T07:25:55;99985.78;;;9.37;33.48
14383;BME280;7275;50.328;8.720;2023-04-06T07:28:23;99996.97;;;9.46;33.36
14383;BME280;7275;50.328;8.720;2023-04-06T07:30:50;99993.22;;;9.53;33.71
14383;BME280;7275;50.328;8.720;2023-04-06T07:33:18;99995.63;;;9.62;33.44
14383;BME280;7275;50.328;8.720;2023-04-06T07:35:46;100002.34;;;9.74;33.67
14383;BME280;7275;50.328;8.720;2023-04-06T07:38:14;99995.00;;;9.84;33.77
14383;BME280;7275;50.328;8.720;2023-04-06T07:40:41;99993.91;;;9.91;33.81
14383;BME280;7275;50.328;8.720;2023-04-06T07:43:10;99992.75;;;9.99;33.77
14383;BME280;7275;50.328;8.720;2023-04-06T07:45:38;99995.25;;;10.04;33.74
14383;BME280;7275;50.328;8.720;2023-04-06T07:48:06;99994.13;;;10.12;33.77
14383;BME280;7275;50.328;8.720;2023-04-06T07:50:33;99987.78;;;10.19;33.89
14383;BME280;7275;50.328;8.720;2023-04-06T07:53:01;99991.91;;;10.28;33.76
14383;BME280;7275;50.328;8.720;2023-04-06T07:55:29;99990.75;;;10.36;33.88
14383;BME280;7275;50.328;8.720;2023-04-06T07:57:57;99989.53;;;10.47;33.75
14383;BME280;7275;50.328;8.720;2023-04-06T08:00:26;99990.97;;;10.57;33.77
14383;BME280;7275;50.328;8.720;2023-04-06T08:02:53;99989.75;;;10.67;33.77
14383;BME280;7275;50.328;8.720;2023-04-06T08:05:21;99994.63;;;10.79;34.03
14383;BME280;7275;50.328;8.720;2023-04-06T08:07:49;99989.84;;;10.90;34.43
14383;BME280;7275;50.328;8.720;2023-04-06T08:10:16;99983.25;;;11.01;34.37
14383;BME280;7275;50.328;8.720;2023-04-06T08:12:44;99980.88;;;11.18;34.39
14383;BME280;7275;50.328;8.720;2023-04-06T08:15:12;99987.31;;;11.36;34.40
14383;BME280;7275;50.328;8.720;2023-04-06T08:17:41;99992.06;;;11.51;33.96
14383;BME280;7275;50.328;8.720;2023-04-06T08:20:09;99991.56;;;11.65;34.11
14383;BME280;7275;50.328;8.720;2023-04-06T08:22:37;99990.09;;;11.81;33.66
14383;BME280;7275;50.328;8.720;2023-04-06T08:25:05;99979.88;;;11.93;33.84
14383;BME280;7275;50.328;8.720;2023-04-06T08:27:33;99988.19;;;12.08;33.37
14383;BME280;7275;50.328;8.720;2023-04-06T08:30:01;99984.91;;;12.23;33.34
14383;BME280;7275;50.328;8.720;2023-04-06T08:32:28;99981.66;;;12.38;32.92
14383;BME280;7275;50.328;8.720;2023-04-06T08:34:58;99983.81;;;12.50;32.46
14383;BME280;7275;50.328;8.720;2023-04-06T08:37:25;99985.94;;;12.63;32.89
14383;BME280;7275;50.328;8.720;2023-04-06T08:39:53;99983.47;;;12.79;32.68
14383;BME280;7275;50.328;8.720;2023-04-06T08:42:21;99979.25;;;13.17;32.28
14383;BME280;7275;50.328;8.720;2023-04-06T08:44:53;99982.56;;;13.81;31.89
14383;BME280;7275;50.328;8.720;2023-04-06T08:47:22;99976.66;;;14.49;31.06
14383;BME280;7275;50.328;8.720;2023-04-06T08:49:51;99960.75;;;15.17;30.56
14383;BME280;7275;50.328;8.720;2023-04-06T08:52:20;99971.47;;;15.82;30.21
14383;BME280;7275;50.328;8.720;2023-04-06T08:54:48;99964.38;;;16.45;29.65
14383;BME280;7275;50.328;8.720;2023-04-06T08:57:16;99959.38;;;17.00;29.54
14383;BME280;7275;50.328;8.720;2023-04-06T08:59:45;99952.44;;;17.55;29.20
14383;BME280;7275;50.328;8.720;2023-04-06T09:02:16;99954.75;;;18.04;28.63
14383;BME280;7275;50.328;8.720;2023-04-06T09:04:45;99949.09;;;18.49;28.06
14383;BME280;7275;50.328;8.720;2023-04-06T09:07:15;99962.13;;;18.94;27.61
14383;BME280;7275;50.328;8.720;2023-04-06T09:09:44;99950.88;;;19.41;27.34
14383;BME280;7275;50.328;8.720;2023-04-06T09:12:25;99936.16;;;19.84;26.85
14383;BME280;7275;50.328;8.720;2023-04-06T09:14:53;99945.13;;;20.21;26.41
14383;BME280;7275;50.328;8.720;2023-04-06T09:17:22;99943.16;;;20.59;26.07
14383;BME280;7275;50.328;8.720;2023-04-06T09:19:50;99946.00;;;20.93;25.56
14383;BME280;7275;50.328;8.720;2023-04-06T09:22:18;99935.38;;;21.15;25.21
14383;BME280;7275;50.328;8.720;2023-04-06T09:24:49;99938.34;;;21.45;25.01
14383;BME280;7275;50.328;8.720;2023-04-06T09:27:17;99925.19;;;21.75;24.68
14383;BME280;7275;50.328;8.720;2023-04-06T09:29:45;99931.19;;;22.01;24.38
14383;BME280;7275;50.328;8.720;2023-04-06T09:32:13;99916.63;;;22.25;24.24
14383;BME280;7275;50.328;8.720;2023-04-06T09:34:43;99929.03;;;22.60;24.01
14383;BME280;7275;50.328;8.720;2023-04-06T09:37:17;99922.69;;;22.92;23.25
14383;BME280;7275;50.328;8.720;2023-04-06T09:39:46;99928.66;;;23.17;23.24
14383;BME280;7275;50.328;8.720;2023-04-06T09:42:24;99919.16;;;23.33;23.33
14383;BME280;7275;50.328;8.720;2023-04-06T09:44:52;99912.56;;;23.47;22.98
14383;BME280;7275;50.328;8.720;2023-04-06T09:47:20;99923.28;;;23.58;22.42
14383;BME280;7275;50.328;8.720;2023-04-06T09:49:55;99908.44;;;23.73;22.95
14383;BME280;7275;50.328;8.720;2023-04-06T09:52:27;99914.19;;;23.89;22.40
14383;BME280;7275;50.328;8.720;2023-04-06T09:55:02;99906.34;;;24.07;22.56
14383;BME280;7275;50.328;8.720;2023-04-06T09:57:36;99899.84;;;24.28;22.20
14383;BME280;7275;50.328;8.720;2023-04-06T10:00:06;99908.69;;;24.49;21.84
14383;BME280;7275;50.328;8.720;2023-04-06T10:02:56;99909.16;;;24.54;21.70
14383;BME280;7275;50.328;8.720;2023-04-06T10:05:31;99917.97;;;24.66;21.58
14383;BME280;7275;50.328;8.720;2023-04-06T10:08:06;99902.47;;;24.68;21.42
14383;BME280;7275;50.328;8.720;2023-04-06T10:10:35;99899.63;;;24.70;21.48
14383;BME280;7275;50.328;8.720;2023-04-06T10:13:05;99896.50;;;24.74;21.20
14383;BME280;7275;50.328;8.720;2023-04-06T10:15:33;99900.06;;;24.75;21.31
14383;BME280;7275;50.328;8.720;2023-04-06T10:18:01;99898.69;;;24.80;21.26
14383;BME280;7275;50.328;8.720;2023-04-06T10:20:35;99894.81;;;24.92;21.59
14383;BME280;7275;50.328;8.720;2023-04-06T10:23:08;99899.66;;;25.17;21.53
14383;BME280;7275;50.328;8.720;2023-04-06T10:25:51;99882.50;;;25.36;21.30
14383;BME280;7275;50.328;8.720;2023-04-06T10:28:21;99896.47;;;25.41;20.74
14383;BME280;7275;50.328;8.720;2023-04-06T10:30:48;99887.22;;;25.44;20.68
14383;BME280;7275;50.328;8.720;2023-04-06T10:33:17;99883.81;;;25.42;20.67
14383;BME280;7275;50.328;8.720;2023-04-06T10:35:46;99898.91;;;25.44;20.46
14383;BME280;7275;50.328;8.720;2023-04-06T10:38:14;99884.72;;;25.60;20.27
14383;BME280;7275;50.328;8.720;2023-04-06T10:40:47;99875.50;;;25.89;20.38
14383;BME280;7275;50.328;8.720;2023-04-06T10:43:19;99880.84;;;26.08;19.94
14383;BME280;7275;50.328;8.720;2023-04-06T10:45:55;99895.09;;;26.10;19.82
14383;BME280;7275;50.328;8.720;2023-04-06T10:48:23;99889.56;;;26.02;19.69
14383;BME280;7275;50.328;8.720;2023-04-06T10:50:52;99879.16;;;26.07;19.87
14383;BME280;7275;50.328;8.720;2023-04-06T10:53:21;99882.31;;;26.30;19.64
14383;BME280;7275;50.328;8.720;2023-04-06T10:55:50;99875.19;;;26.47;19.42
14383;BME280;7275;50.328;8.720;2023-04-06T10:58:18;99876.59;;;26.51;19.22
14383;BME280;7275;50.328;8.720;2023-04-06T11:00:47;99882.72;;;26.53;19.34
14383;BME280;7275;50.328;8.720;2023-04-06T11:03:18;99859.84;;;26.55;19.18
14383;BME280;7275;50.328;8.720;2023-04-06T11:05:46;99865.19;;;26.65;19.23
14383;BME280;7275;50.328;8.720;2023-04-06T11:08:25;99861.34;;;26.85;19.16
14383;BME280;7275;50.328;8.720;2023-04-06T11:11:04;99859.06;;;26.98;19.38
14383;BME280;7275;50.328;8.720;2023-04-06T11:13:38;99860.44;;;27.20;18.79
14383;BME280;7275;50.328;8.720;2023-04-06T11:16:06;99868.91;;;27.34;18.78
14383;BME280;7275;50.328;8.720;2023-04-06T11:18:48;99852.25;;;27.37;18.51
14383;BME280;7275;50.328;8.720;2023-04-06T11:21:16;99857.22;;;27.42;18.91
14383;BME280;7275;50.328;8.720;2023-04-06T11:23:44;99844.38;;;27.52;18.12
14383;BME280;7275;50.328;8.720;2023-04-06T11:26:12;99851.03;;;27.57;18.32
14383;BME280;7275;50.328;8.720;2023-04-06T11:28:40;99858.38;;;27.65;18.45
14383;BME280;7275;50.328;8.720;2023-04-06T11:31:09;99851.09;;;27.65;18.38
14383;BME280;7275;50.328;8.720;2023-04-06T11:33:37;99847.13;;;27.60;17.94
14383;BME280;7275;50.328;8.720;2023-04-06T11:36:08;99853.25;;;27.62;18.25
14383;BME280;7275;50.328;8.720;2023-04-06T11:38:38;99831.16;;;27.57;18.15
14383;BME280;7275;50.328;8.720;2023-04-06T11:41:06;99835.22;;;27.53;18.30
14383;BME280;7275;50.328;8.720;2023-04-06T11:43:34;99840.91;;;27.42;18.12
14383;BME280;7275;50.328;8.720;2023-04-06T11:46:03;99850.75;;;27.35;18.13
14383;BME280;7275;50.328;8.720;2023-04-06T11:48:31;99822.84;;;27.33;18.03
14383;BME280;7275;50.328;8.720;2023-04-06T11:50:59;99829.97;;;27.51;18.25
14383;BME280;7275;50.328;8.720;2023-04-06T11:53:29;99829.63;;;27.54;17.51
14383;BME280;7275;50.328;8.720;2023-04-06T11:55:56;99824.84;;;27.31;17.65
14383;BME280;7275;50.328;8.720;2023-04-06T11:58:26;99817.72;;;27.04;18.16
14383;BME280;7275;50.328;8.720;2023-04-06T12:00:53;99818.13;;;27.09;18.41
14383;BME280;7275;50.328;8.720;2023-04-06T12:03:30;99822.34;;;26.86;18.08
14383;BME280;7275;50.328;8.720;2023-04-06T12:05:58;99817.69;;;26.43;18.25
14383;BME280;7275;50.328;8.720;2023-04-06T12:08:26;99824.25;;;25.96;18.37
14383;BME280;7275;50.328;8.720;2023-04-06T12:10:55;99819.34;;;25.55;18.85
14383;BME280;7275;50.328;8.720;2023-04-06T12:13:22;99823.56;;;25.30;18.94
14383;BME280;7275;50.328;8.720;2023-04-06T12:15:51;99818.06;;;25.03;18.90
14383;BME280;7275;50.328;8.720;2023-04-06T12:18:19;99818.63;;;24.68;19.01
14383;BME280;7275;50.328;8.720;2023-04-06T12:20:46;99828.31;;;24.51;19.49
14383;BME280;7275;50.328;8.720;2023-04-06T12:23:14;99818.34;;;24.33;19.30
14383;BME280;7275;50.328;8.720;2023-04-06T12:25:42;99816.63;;;24.13;19.67
14383;BME280;7275;50.328;8.720;2023-04-06T12:28:11;99803.91;;;23.94;19.66
14383;BME280;7275;50.328;8.720;2023-04-06T12:30:39;99818.94;;;23.87;20.01
14383;BME280;7275;50.328;8.720;2023-04-06T12:33:07;99810.53;;;23.71;19.76
14383;BME280;7275;50.328;8.720;2023-04-06T12:35:35;99807.91;;;23.50;19.91
14383;BME280;7275;50.328;8.720;2023-04-06T12:38:03;99813.56;;;23.27;20.34
14383;BME280;7275;50.328;8.720;2023-04-06T12:40:36;99809.78;;;23.09;20.23
14383;BME280;7275;50.328;8.720;2023-04-06T12:43:04;99836.25;;;22.94;20.42
14383;BME280;7275;50.328;8.720;2023-04-06T12:45:33;99820.06;;;22.73;20.12
14383;BME280;7275;50.328;8.720;2023-04-06T12:48:01;99818.88;;;22.55;20.62
14383;BME280;7275;50.328;8.720;2023-04-06T12:50:28;99808.19;;;22.44;20.55
14383;BME280;7275;50.328;8.720;2023-04-06T12:52:56;99806.38;;;22.34;20.38
14383;BME280;7275;50.328;8.720;2023-04-06T12:55:24;99801.63;;;22.26;20.70
14383;BME280;7275;50.328;8.720;2023-04-06T12:57:52;99806.41;;;22.22;20.98
14383;BME280;7275;50.328;8.720;2023-04-06T13:00:21;99802.28;;;22.18;20.90
14383;BME280;7275;50.328;8.720;2023-04-06T13:02:51;99795.28;;;22.16;21.21
14383;BME280;7275;50.328;8.720;2023-04-06T13:05:18;99788.31;;;22.13;21.26
14383;BME280;7275;50.328;8.720;2023-04-06T13:07:46;99795.09;;;22.08;21.25
14383;BME280;7275;50.328;8.720;2023-04-06T13:10:14;99790.44;;;21.99;21.06
14383;BME280;7275;50.328;8.720;2023-04-06T13:12:41;99800.28;;;21.89;21.00
14383;BME280;7275;50.328;8.720;2023-04-06T13:15:10;99794.44;;;21.84;21.13
14383;BME280;7275;50.328;8.720;2023-04-06T13:17:38;99804.81;;;21.77;21.11
14383;BME280;7275;50.328;8.720;2023-04-06T13:20:08;99783.41;;;21.65;20.95
14383;BME280;7275;50.328;8.720;2023-04-06T13:22:37;99792.50;;;21.53;21.38